sensor_id;sensor_type;location;lat;lon;timestamp;P1;durP1;ratioP1;P2;durP2;ratioP2
49310;SDS011;35177;45.900;5.946;2022-09-09T00:00:17;3.70;;;1.00;;
49310;SDS011;35177;45.900;5.946;2022-09-09T00:02:47;8.50;;;1.95;;
49310;SDS011;35177;45.900;5.946;2022-09-09T00:08:11;7.15;;;1.23;;
49310;SDS011;35177;45.900;5.946;2022-09-09T00:16:28;6.22;;;1.80;;
49310;SDS011;35177;45.900;5.946;2022-09-09T00:21:35;3.88;;;1.80;;
49310;SDS011;35177;45.900;5.946;2022-09-09T00:26:45;2.15;;;1.83;;
49310;SDS011;35177;45.900;5.946;2022-09-09T00:29:24;9.90;;;2.28;;
49310;SDS011;35177;45.900;5.946;2022-09-09T00:32:00;9.70;;;2.03;;
49310;SDS011;35177;45.900;5.946;2022-09-09T00:34:36;8.65;;;1.80;;
49310;SDS011;35177;45.900;5.946;2022-09-09T00:37:08;2.63;;;1.52;;
49310;SDS011;35177;45.900;5.946;2022-09-09T00:39:36;5.20;;;1.40;;
49310;SDS011;35177;45.900;5.946;2022-09-09T00:42:22;3.25;;;1.20;;
49310;SDS011;35177;45.900;5.946;2022-09-09T00:53:08;6.85;;;1.55;;
49310;SDS011;35177;45.900;5.946;2022-09-09T00:58:09;3.30;;;1.40;;
49310;SDS011;35177;45.900;5.946;2022-09-09T01:00:44;3.08;;;1.20;;
49310;SDS011;35177;45.900;5.946;2022-09-09T01:11:41;6.53;;;1.65;;
49310;SDS011;35177;45.900;5.946;2022-09-09T01:14:24;6.28;;;1.52;;
49310;SDS011;35177;45.900;5.946;2022-09-09T01:17:17;1.83;;;1.08;;
49310;SDS011;35177;45.900;5.946;2022-09-09T01:22:29;6.88;;;1.30;;
49310;SDS011;35177;45.900;5.946;2022-09-09T01:25:20;5.63;;;1.30;;
49310;SDS011;35177;45.900;5.946;2022-09-09T01:27:51;4.65;;;1.75;;
49310;SDS011;35177;45.900;5.946;2022-09-09T01:30:20;4.82;;;1.50;;
49310;SDS011;35177;45.900;5.946;2022-09-09T01:32:48;4.72;;;1.40;;
49310;SDS011;35177;45.900;5.946;2022-09-09T01:35:38;1.80;;;1.23;;
49310;SDS011;35177;45.900;5.946;2022-09-09T01:38:30;4.60;;;1.35;;
49310;SDS011;35177;45.900;5.946;2022-09-09T01:40:57;3.30;;;1.10;;
49310;SDS011;35177;45.900;5.946;2022-09-09T01:43:23;7.10;;;1.73;;
49310;SDS011;35177;45.900;5.946;2022-09-09T01:45:52;3.65;;;1.30;;
49310;SDS011;35177;45.900;5.946;2022-09-09T01:48:20;6.03;;;1.85;;
49310;SDS011;35177;45.900;5.946;2022-09-09T01:50:48;3.38;;;1.45;;
49310;SDS011;35177;45.900;5.946;2022-09-09T01:53:14;2.72;;;1.38;;
49310;SDS011;35177;45.900;5.946;2022-09-09T01:55:44;2.60;;;1.20;;
49310;SDS011;35177;45.900;5.946;2022-09-09T01:58:23;4.97;;;1.40;;
49310;SDS011;35177;45.900;5.946;2022-09-09T02:01:16;4.53;;;1.30;;
49310;SDS011;35177;45.900;5.946;2022-09-09T02:03:55;3.55;;;1.67;;
49310;SDS011;35177;45.900;5.946;2022-09-09T02:06:35;4.65;;;1.65;;
49310;SDS011;35177;45.900;5.946;2022-09-09T02:09:05;3.35;;;1.60;;
49310;SDS011;35177;45.900;5.946;2022-09-09T02:11:35;3.70;;;1.50;;
49310;SDS011;35177;45.900;5.946;2022-09-09T02:14:05;7.15;;;1.88;;
49310;SDS011;35177;45.900;5.946;2022-09-09T02:16:40;4.30;;;2.03;;
49310;SDS011;35177;45.900;5.946;2022-09-09T02:19:17;5.35;;;1.80;;
49310;SDS011;35177;45.900;5.946;2022-09-09T02:21:50;3.20;;;1.48;;
49310;SDS011;35177;45.900;5.946;2022-09-09T02:24:18;3.88;;;1.60;;
49310;SDS011;35177;45.900;5.946;2022-09-09T02:26:44;8.65;;;2.28;;
49310;SDS011;35177;45.900;5.946;2022-09-09T02:29:16;4.25;;;1.35;;
49310;SDS011;35177;45.900;5.946;2022-09-09T02:31:47;5.95;;;1.50;;
49310;SDS011;35177;45.900;5.946;2022-09-09T02:34:14;5.78;;;1.70;;
49310;SDS011;35177;45.900;5.946;2022-09-09T02:36:44;2.97;;;1.25;;
49310;SDS011;35177;45.900;5.946;2022-09-09T02:39:11;6.75;;;1.50;;
49310;SDS011;35177;45.900;5.946;2022-09-09T02:41:40;2.33;;;1.35;;
49310;SDS011;35177;45.900;5.946;2022-09-09T02:44:14;4.38;;;1.83;;
49310;SDS011;35177;45.900;5.946;2022-09-09T02:52:30;6.30;;;1.67;;
49310;SDS011;35177;45.900;5.946;2022-09-09T02:55:06;7.35;;;2.10;;
49310;SDS011;35177;45.900;5.946;2022-09-09T02:57:40;8.40;;;1.92;;
49310;SDS011;35177;45.900;5.946;2022-09-09T03:00:08;2.75;;;1.65;;
49310;SDS011;35177;45.900;5.946;2022-09-09T03:02:35;5.20;;;2.20;;
49310;SDS011;35177;45.900;5.946;2022-09-09T03:05:00;4.30;;;1.98;;
49310;SDS011;35177;45.900;5.946;2022-09-09T03:07:25;5.50;;;2.67;;
49310;SDS011;35177;45.900;5.946;2022-09-09T03:09:52;7.82;;;3.25;;
49310;SDS011;35177;45.900;5.946;2022-09-09T03:12:18;5.47;;;2.60;;
49310;SDS011;35177;45.900;5.946;2022-09-09T03:14:45;7.07;;;3.13;;
49310;SDS011;35177;45.900;5.946;2022-09-09T03:17:11;8.10;;;3.05;;
49310;SDS011;35177;45.900;5.946;2022-09-09T03:19:37;5.43;;;2.70;;
49310;SDS011;35177;45.900;5.946;2022-09-09T03:22:03;5.75;;;2.40;;
49310;SDS011;35177;45.900;5.946;2022-09-09T03:24:29;4.13;;;2.40;;
49310;SDS011;35177;45.900;5.946;2022-09-09T03:26:55;5.55;;;2.85;;
49310;SDS011;35177;45.900;5.946;2022-09-09T03:29:20;6.00;;;2.72;;
49310;SDS011;35177;45.900;5.946;2022-09-09T03:31:46;4.25;;;2.72;;
49310;SDS011;35177;45.900;5.946;2022-09-09T03:34:12;12.38;;;2.75;;
49310;SDS011;35177;45.900;5.946;2022-09-09T03:36:38;4.30;;;2.13;;
49310;SDS011;35177;45.900;5.946;2022-09-09T03:39:06;8.27;;;2.53;;
49310;SDS011;35177;45.900;5.946;2022-09-09T03:41:31;9.85;;;3.30;;
49310;SDS011;35177;45.900;5.946;2022-09-09T03:43:57;4.63;;;2.33;;
49310;SDS011;35177;45.900;5.946;2022-09-09T03:46:23;5.60;;;2.10;;
49310;SDS011;35177;45.900;5.946;2022-09-09T03:48:50;4.60;;;2.20;;
49310;SDS011;35177;45.900;5.946;2022-09-09T03:51:17;6.20;;;2.17;;
49310;SDS011;35177;45.900;5.946;2022-09-09T03:53:42;11.98;;;3.25;;
49310;SDS011;35177;45.900;5.946;2022-09-09T03:56:08;6.03;;;2.08;;
49310;SDS011;35177;45.900;5.946;2022-09-09T03:58:34;6.75;;;2.40;;
49310;SDS011;35177;45.900;5.946;2022-09-09T04:01:01;10.77;;;2.67;;
49310;SDS011;35177;45.900;5.946;2022-09-09T04:03:29;7.95;;;2.83;;
49310;SDS011;35177;45.900;5.946;2022-09-09T04:05:56;6.65;;;2.72;;
49310;SDS011;35177;45.900;5.946;2022-09-09T04:08:23;6.30;;;3.47;;
49310;SDS011;35177;45.900;5.946;2022-09-09T04:10:53;4.05;;;2.80;;
49310;SDS011;35177;45.900;5.946;2022-09-09T04:13:23;9.98;;;4.50;;
49310;SDS011;35177;45.900;5.946;2022-09-09T04:15:56;11.15;;;4.05;;
49310;SDS011;35177;45.900;5.946;2022-09-09T04:18:23;7.93;;;4.30;;
49310;SDS011;35177;45.900;5.946;2022-09-09T04:20:51;7.95;;;4.45;;
49310;SDS011;35177;45.900;5.946;2022-09-09T04:23:18;8.80;;;5.10;;
49310;SDS011;35177;45.900;5.946;2022-09-09T04:25:45;9.57;;;4.88;;
49310;SDS011;35177;45.900;5.946;2022-09-09T04:28:13;6.55;;;3.72;;
49310;SDS011;35177;45.900;5.946;2022-09-09T04:30:39;9.00;;;3.90;;
49310;SDS011;35177;45.900;5.946;2022-09-09T04:33:05;7.38;;;3.97;;
49310;SDS011;35177;45.900;5.946;2022-09-09T04:35:31;6.03;;;3.67;;
49310;SDS011;35177;45.900;5.946;2022-09-09T04:37:58;6.93;;;3.78;;
49310;SDS011;35177;45.900;5.946;2022-09-09T04:40:23;7.05;;;3.10;;
49310;SDS011;35177;45.900;5.946;2022-09-09T04:42:50;7.07;;;3.55;;
49310;SDS011;35177;45.900;5.946;2022-09-09T04:45:16;4.78;;;3.08;;
49310;SDS011;35177;45.900;5.946;2022-09-09T04:47:41;10.82;;;2.88;;
49310;SDS011;35177;45.900;5.946;2022-09-09T04:50:07;8.27;;;2.45;;
49310;SDS011;35177;45.900;5.946;2022-09-09T04:52:34;9.55;;;2.03;;
49310;SDS011;35177;45.900;5.946;2022-09-09T04:55:00;8.60;;;2.25;;
49310;SDS011;35177;45.900;5.946;2022-09-09T04:57:27;9.65;;;2.00;;
49310;SDS011;35177;45.900;5.946;2022-09-09T04:59:53;6.03;;;1.83;;
49310;SDS011;35177;45.900;5.946;2022-09-09T05:02:19;2.05;;;1.40;;
49310;SDS011;35177;45.900;5.946;2022-09-09T05:04:44;6.88;;;1.67;;
49310;SDS011;35177;45.900;5.946;2022-09-09T05:07:10;1.67;;;1.33;;
49310;SDS011;35177;45.900;5.946;2022-09-09T05:09:35;10.90;;;2.15;;
49310;SDS011;35177;45.900;5.946;2022-09-09T05:12:01;7.70;;;1.80;;
49310;SDS011;35177;45.900;5.946;2022-09-09T05:14:28;7.40;;;1.60;;
49310;SDS011;35177;45.900;5.946;2022-09-09T05:16:55;1.48;;;1.38;;
49310;SDS011;35177;45.900;5.946;2022-09-09T05:19:21;3.95;;;1.70;;
49310;SDS011;35177;45.900;5.946;2022-09-09T05:21:46;13.27;;;1.83;;
49310;SDS011;35177;45.900;5.946;2022-09-09T05:24:13;3.85;;;1.30;;
49310;SDS011;35177;45.900;5.946;2022-09-09T05:26:38;4.78;;;2.03;;
49310;SDS011;35177;45.900;5.946;2022-09-09T05:29:04;3.20;;;1.70;;
49310;SDS011;35177;45.900;5.946;2022-09-09T05:31:30;11.50;;;1.80;;
49310;SDS011;35177;45.900;5.946;2022-09-09T05:33:55;8.57;;;1.38;;
49310;SDS011;35177;45.900;5.946;2022-09-09T05:36:22;5.15;;;1.55;;
49310;SDS011;35177;45.900;5.946;2022-09-09T05:38:48;7.78;;;1.70;;
49310;SDS011;35177;45.900;5.946;2022-09-09T05:41:15;6.05;;;1.80;;
49310;SDS011;35177;45.900;5.946;2022-09-09T05:43:42;5.28;;;1.90;;
49310;SDS011;35177;45.900;5.946;2022-09-09T05:46:16;4.95;;;1.67;;
49310;SDS011;35177;45.900;5.946;2022-09-09T05:48:47;4.63;;;1.58;;
49310;SDS011;35177;45.900;5.946;2022-09-09T05:51:16;4.18;;;1.58;;
49310;SDS011;35177;45.900;5.946;2022-09-09T05:53:45;10.85;;;2.03;;
49310;SDS011;35177;45.900;5.946;2022-09-09T05:56:15;13.80;;;3.28;;
49310;SDS011;35177;45.900;5.946;2022-09-09T05:58:43;228.10;;;8.85;;
49310;SDS011;35177;45.900;5.946;2022-09-09T06:01:10;72.03;;;6.00;;
49310;SDS011;35177;45.900;5.946;2022-09-09T06:03:39;101.85;;;6.60;;
49310;SDS011;35177;45.900;5.946;2022-09-09T06:06:07;130.05;;;7.65;;
49310;SDS011;35177;45.900;5.946;2022-09-09T06:08:35;160.25;;;8.20;;
49310;SDS011;35177;45.900;5.946;2022-09-09T06:11:05;143.25;;;8.32;;
49310;SDS011;35177;45.900;5.946;2022-09-09T06:13:36;471.75;;;15.13;;
49310;SDS011;35177;45.900;5.946;2022-09-09T06:16:03;208.23;;;8.57;;
49310;SDS011;35177;45.900;5.946;2022-09-09T06:18:29;97.72;;;6.28;;
49310;SDS011;35177;45.900;5.946;2022-09-09T06:21:02;111.88;;;7.13;;
49310;SDS011;35177;45.900;5.946;2022-09-09T06:23:30;178.82;;;7.63;;
49310;SDS011;35177;45.900;5.946;2022-09-09T06:28:33;107.60;;;6.47;;
49310;SDS011;35177;45.900;5.946;2022-09-09T06:30:59;237.45;;;8.63;;
49310;SDS011;35177;45.900;5.946;2022-09-09T06:33:33;167.88;;;7.95;;
49310;SDS011;35177;45.900;5.946;2022-09-09T06:36:01;97.55;;;6.57;;
49310;SDS011;35177;45.900;5.946;2022-09-09T06:38:28;20.98;;;4.18;;
49310;SDS011;35177;45.900;5.946;2022-09-09T06:40:54;11.57;;;3.90;;
49310;SDS011;35177;45.900;5.946;2022-09-09T06:43:21;16.80;;;4.82;;
49310;SDS011;35177;45.900;5.946;2022-09-09T06:45:57;29.52;;;4.43;;
49310;SDS011;35177;45.900;5.946;2022-09-09T06:48:24;5.15;;;3.28;;
49310;SDS011;35177;45.900;5.946;2022-09-09T06:51:10;6.10;;;3.47;;
49310;SDS011;35177;45.900;5.946;2022-09-09T06:53:39;5.93;;;3.75;;
49310;SDS011;35177;45.900;5.946;2022-09-09T06:58:52;10.38;;;3.92;;
49310;SDS011;35177;45.900;5.946;2022-09-09T07:01:20;6.97;;;4.07;;
49310;SDS011;35177;45.900;5.946;2022-09-09T07:03:49;7.18;;;3.20;;
49310;SDS011;35177;45.900;5.946;2022-09-09T07:06:17;6.38;;;3.13;;
49310;SDS011;35177;45.900;5.946;2022-09-09T07:08:54;14.05;;;4.10;;
49310;SDS011;35177;45.900;5.946;2022-09-09T07:11:21;8.23;;;3.53;;
49310;SDS011;35177;45.900;5.946;2022-09-09T07:13:48;5.13;;;3.20;;
49310;SDS011;35177;45.900;5.946;2022-09-09T07:16:18;6.88;;;3.38;;
49310;SDS011;35177;45.900;5.946;2022-09-09T07:18:45;9.25;;;3.50;;
49310;SDS011;35177;45.900;5.946;2022-09-09T07:21:13;9.77;;;3.40;;
49310;SDS011;35177;45.900;5.946;2022-09-09T07:23:40;5.85;;;3.17;;
49310;SDS011;35177;45.900;5.946;2022-09-09T07:26:10;7.10;;;3.60;;
49310;SDS011;35177;45.900;5.946;2022-09-09T07:28:38;4.55;;;3.33;;
49310;SDS011;35177;45.900;5.946;2022-09-09T07:31:06;10.40;;;3.65;;
49310;SDS011;35177;45.900;5.946;2022-09-09T07:33:38;4.10;;;3.13;;
49310;SDS011;35177;45.900;5.946;2022-09-09T07:36:07;7.20;;;4.00;;
49310;SDS011;35177;45.900;5.946;2022-09-09T07:38:38;8.63;;;4.10;;
49310;SDS011;35177;45.900;5.946;2022-09-09T07:41:09;6.38;;;4.20;;
49310;SDS011;35177;45.900;5.946;2022-09-09T07:43:37;5.03;;;4.20;;
49310;SDS011;35177;45.900;5.946;2022-09-09T07:46:05;4.50;;;3.50;;
49310;SDS011;35177;45.900;5.946;2022-09-09T07:48:31;4.38;;;3.20;;
49310;SDS011;35177;45.900;5.946;2022-09-09T07:51:32;6.60;;;3.10;;
49310;SDS011;35177;45.900;5.946;2022-09-09T07:53:53;7.28;;;2.97;;
49310;SDS011;35177;45.900;5.946;2022-09-09T07:56:22;6.85;;;3.25;;
49310;SDS011;35177;45.900;5.946;2022-09-09T07:58:48;3.20;;;2.90;;
49310;SDS011;35177;45.900;5.946;2022-09-09T08:01:17;5.80;;;3.25;;
49310;SDS011;35177;45.900;5.946;2022-09-09T08:03:57;5.88;;;3.47;;
49310;SDS011;35177;45.900;5.946;2022-09-09T08:06:25;4.83;;;3.03;;
49310;SDS011;35177;45.900;5.946;2022-09-09T08:08:52;6.10;;;3.00;;
49310;SDS011;35177;45.900;5.946;2022-09-09T08:11:19;4.65;;;3.03;;
49310;SDS011;35177;45.900;5.946;2022-09-09T08:13:45;4.05;;;2.70;;
49310;SDS011;35177;45.900;5.946;2022-09-09T08:16:16;5.53;;;3.17;;
49310;SDS011;35177;45.900;5.946;2022-09-09T08:18:46;8.82;;;3.22;;
49310;SDS011;35177;45.900;5.946;2022-09-09T08:21:14;8.80;;;3.30;;
49310;SDS011;35177;45.900;5.946;2022-09-09T08:23:43;4.78;;;2.63;;
49310;SDS011;35177;45.900;5.946;2022-09-09T08:26:14;3.63;;;2.40;;
49310;SDS011;35177;45.900;5.946;2022-09-09T08:28:41;7.93;;;2.42;;
49310;SDS011;35177;45.900;5.946;2022-09-09T08:31:12;14.20;;;2.88;;
49310;SDS011;35177;45.900;5.946;2022-09-09T08:33:40;6.25;;;2.05;;
49310;SDS011;35177;45.900;5.946;2022-09-09T08:36:06;5.07;;;2.22;;
49310;SDS011;35177;45.900;5.946;2022-09-09T08:38:34;5.13;;;1.92;;
49310;SDS011;35177;45.900;5.946;2022-09-09T08:44:10;7.45;;;2.17;;
49310;SDS011;35177;45.900;5.946;2022-09-09T08:57:46;5.60;;;1.83;;
49310;SDS011;35177;45.900;5.946;2022-09-09T09:00:14;2.55;;;1.40;;
49310;SDS011;35177;45.900;5.946;2022-09-09T09:02:44;6.63;;;1.40;;
49310;SDS011;35177;45.900;5.946;2022-09-09T09:05:37;5.53;;;1.50;;
49310;SDS011;35177;45.900;5.946;2022-09-09T09:10:58;4.85;;;1.48;;
49310;SDS011;35177;45.900;5.946;2022-09-09T09:13:33;4.35;;;0.90;;
49310;SDS011;35177;45.900;5.946;2022-09-09T09:16:48;3.88;;;0.93;;
49310;SDS011;35177;45.900;5.946;2022-09-09T09:18:50;3.70;;;0.70;;
49310;SDS011;35177;45.900;5.946;2022-09-09T09:24:03;2.47;;;0.70;;
49310;SDS011;35177;45.900;5.946;2022-09-09T09:26:40;1.88;;;0.80;;
49310;SDS011;35177;45.900;5.946;2022-09-09T09:29:09;2.88;;;0.65;;
49310;SDS011;35177;45.900;5.946;2022-09-09T09:31:47;2.00;;;0.73;;
49310;SDS011;35177;45.900;5.946;2022-09-09T09:34:16;5.25;;;0.77;;
49310;SDS011;35177;45.900;5.946;2022-09-09T09:36:51;1.95;;;0.80;;
49310;SDS011;35177;45.900;5.946;2022-09-09T09:39:28;4.20;;;0.90;;
49310;SDS011;35177;45.900;5.946;2022-09-09T09:41:55;2.92;;;1.02;;
49310;SDS011;35177;45.900;5.946;2022-09-09T09:44:26;6.10;;;0.90;;
49310;SDS011;35177;45.900;5.946;2022-09-09T09:47:05;2.35;;;0.68;;
49310;SDS011;35177;45.900;5.946;2022-09-09T09:49:37;4.43;;;0.95;;
49310;SDS011;35177;45.900;5.946;2022-09-09T09:52:03;1.48;;;0.60;;
49310;SDS011;35177;45.900;5.946;2022-09-09T09:54:32;3.13;;;0.90;;
49310;SDS011;35177;45.900;5.946;2022-09-09T09:57:11;3.92;;;1.13;;
49310;SDS011;35177;45.900;5.946;2022-09-09T09:59:39;1.42;;;0.77;;
49310;SDS011;35177;45.900;5.946;2022-09-09T10:05:02;6.80;;;1.20;;
49310;SDS011;35177;45.900;5.946;2022-09-09T10:07:28;2.33;;;1.00;;
49310;SDS011;35177;45.900;5.946;2022-09-09T10:09:55;6.38;;;0.85;;
49310;SDS011;35177;45.900;5.946;2022-09-09T10:17:29;1.85;;;0.80;;
49310;SDS011;35177;45.900;5.946;2022-09-09T10:20:13;2.70;;;0.60;;
49310;SDS011;35177;45.900;5.946;2022-09-09T10:34:30;1.52;;;0.50;;
49310;SDS011;35177;45.900;5.946;2022-09-09T10:37:19;2.35;;;0.68;;
49310;SDS011;35177;45.900;5.946;2022-09-09T10:40:02;2.75;;;1.00;;
49310;SDS011;35177;45.900;5.946;2022-09-09T10:42:41;3.60;;;0.80;;
49310;SDS011;35177;45.900;5.946;2022-09-09T10:45:18;4.63;;;1.02;;
49310;SDS011;35177;45.900;5.946;2022-09-09T10:50:35;1.90;;;0.57;;
49310;SDS011;35177;45.900;5.946;2022-09-09T10:55:51;2.75;;;0.90;;
49310;SDS011;35177;45.900;5.946;2022-09-09T11:01:14;3.55;;;1.05;;
49310;SDS011;35177;45.900;5.946;2022-09-09T11:03:46;2.05;;;0.68;;
49310;SDS011;35177;45.900;5.946;2022-09-09T11:06:19;4.55;;;0.70;;
49310;SDS011;35177;45.900;5.946;2022-09-09T11:08:50;3.13;;;0.70;;
49310;SDS011;35177;45.900;5.946;2022-09-09T11:16:59;2.15;;;0.73;;
49310;SDS011;35177;45.900;5.946;2022-09-09T11:33:23;14.05;;;0.95;;
49310;SDS011;35177;45.900;5.946;2022-09-09T11:39:14;3.58;;;0.60;;
49310;SDS011;35177;45.900;5.946;2022-09-09T11:42:07;1.50;;;0.60;;
49310;SDS011;35177;45.900;5.946;2022-09-09T11:44:43;1.25;;;0.60;;
49310;SDS011;35177;45.900;5.946;2022-09-09T11:47:22;5.70;;;0.70;;
49310;SDS011;35177;45.900;5.946;2022-09-09T11:52:39;1.65;;;0.60;;
49310;SDS011;35177;45.900;5.946;2022-09-09T11:55:11;2.40;;;0.70;;
49310;SDS011;35177;45.900;5.946;2022-09-09T11:57:58;5.30;;;0.93;;
49310;SDS011;35177;45.900;5.946;2022-09-09T12:00:48;3.65;;;0.90;;
49310;SDS011;35177;45.900;5.946;2022-09-09T12:06:12;2.73;;;0.70;;
49310;SDS011;35177;45.900;5.946;2022-09-09T12:09:05;1.65;;;0.60;;
49310;SDS011;35177;45.900;5.946;2022-09-09T12:11:43;1.85;;;0.70;;
49310;SDS011;35177;45.900;5.946;2022-09-09T12:14:18;2.72;;;0.52;;
49310;SDS011;35177;45.900;5.946;2022-09-09T12:16:46;1.30;;;0.60;;
49310;SDS011;35177;45.900;5.946;2022-09-09T12:19:16;1.58;;;0.65;;
49310;SDS011;35177;45.900;5.946;2022-09-09T12:22:09;1.52;;;0.65;;
49310;SDS011;35177;45.900;5.946;2022-09-09T12:24:45;2.17;;;0.70;;
49310;SDS011;35177;45.900;5.946;2022-09-09T12:27:23;2.30;;;0.82;;
49310;SDS011;35177;45.900;5.946;2022-09-09T12:32:25;2.08;;;0.70;;
49310;SDS011;35177;45.900;5.946;2022-09-09T12:34:53;1.58;;;0.70;;
49310;SDS011;35177;45.900;5.946;2022-09-09T12:37:27;4.60;;;1.10;;
49310;SDS011;35177;45.900;5.946;2022-09-09T12:39:58;2.33;;;0.90;;
49310;SDS011;35177;45.900;5.946;2022-09-09T12:42:25;2.42;;;0.68;;
49310;SDS011;35177;45.900;5.946;2022-09-09T12:44:52;1.75;;;0.52;;
49310;SDS011;35177;45.900;5.946;2022-09-09T12:47:20;2.28;;;0.70;;
49310;SDS011;35177;45.900;5.946;2022-09-09T12:49:51;3.15;;;1.00;;
49310;SDS011;35177;45.900;5.946;2022-09-09T12:52:23;3.47;;;0.80;;
49310;SDS011;35177;45.900;5.946;2022-09-09T12:54:49;1.55;;;0.57;;
49310;SDS011;35177;45.900;5.946;2022-09-09T12:57:18;2.70;;;0.90;;
49310;SDS011;35177;45.900;5.946;2022-09-09T12:59:47;1.25;;;0.57;;
49310;SDS011;35177;45.900;5.946;2022-09-09T13:02:20;2.33;;;0.80;;
49310;SDS011;35177;45.900;5.946;2022-09-09T13:04:50;2.03;;;0.68;;
49310;SDS011;35177;45.900;5.946;2022-09-09T13:07:17;2.15;;;0.65;;
49310;SDS011;35177;45.900;5.946;2022-09-09T13:09:44;1.92;;;0.65;;
49310;SDS011;35177;45.900;5.946;2022-09-09T13:12:13;5.05;;;0.98;;
49310;SDS011;35177;45.900;5.946;2022-09-09T13:14:48;2.47;;;0.55;;
49310;SDS011;35177;45.900;5.946;2022-09-09T13:17:21;2.50;;;0.82;;
49310;SDS011;35177;45.900;5.946;2022-09-09T13:19:48;0.63;;;0.43;;
49310;SDS011;35177;45.900;5.946;2022-09-09T13:22:21;2.30;;;0.65;;
49310;SDS011;35177;45.900;5.946;2022-09-09T13:25:06;1.98;;;0.70;;
49310;SDS011;35177;45.900;5.946;2022-09-09T13:27:51;1.15;;;0.70;;
49310;SDS011;35177;45.900;5.946;2022-09-09T13:30:23;5.45;;;1.08;;
49310;SDS011;35177;45.900;5.946;2022-09-09T13:35:34;1.30;;;0.68;;
49310;SDS011;35177;45.900;5.946;2022-09-09T13:38:12;3.90;;;0.80;;
49310;SDS011;35177;45.900;5.946;2022-09-09T13:40:40;2.75;;;0.52;;
49310;SDS011;35177;45.900;5.946;2022-09-09T13:43:19;5.93;;;0.73;;
49310;SDS011;35177;45.900;5.946;2022-09-09T13:46:22;1.45;;;0.70;;
49310;SDS011;35177;45.900;5.946;2022-09-09T13:49:02;4.32;;;1.10;;
49310;SDS011;35177;45.900;5.946;2022-09-09T13:51:45;3.35;;;1.23;;
49310;SDS011;35177;45.900;5.946;2022-09-09T13:54:14;4.60;;;2.40;;
49310;SDS011;35177;45.900;5.946;2022-09-09T13:56:41;2.83;;;0.60;;
49310;SDS011;35177;45.900;5.946;2022-09-09T13:59:17;2.72;;;1.67;;
49310;SDS011;35177;45.900;5.946;2022-09-09T14:01:49;11.50;;;8.65;;
49310;SDS011;35177;45.900;5.946;2022-09-09T14:04:16;18.98;;;16.60;;
49310;SDS011;35177;45.900;5.946;2022-09-09T14:06:42;3.00;;;0.57;;
49310;SDS011;35177;45.900;5.946;2022-09-09T14:09:10;5.57;;;1.90;;
49310;SDS011;35177;45.900;5.946;2022-09-09T14:11:37;1.65;;;0.60;;
49310;SDS011;35177;45.900;5.946;2022-09-09T14:14:03;3.33;;;0.80;;
49310;SDS011;35177;45.900;5.946;2022-09-09T14:16:29;6.45;;;3.42;;
49310;SDS011;35177;45.900;5.946;2022-09-09T14:18:55;4.22;;;2.63;;
49310;SDS011;35177;45.900;5.946;2022-09-09T14:21:24;3.15;;;1.58;;
49310;SDS011;35177;45.900;5.946;2022-09-09T14:23:50;4.70;;;3.47;;
49310;SDS011;35177;45.900;5.946;2022-09-09T14:26:18;4.68;;;1.10;;
49310;SDS011;35177;45.900;5.946;2022-09-09T14:28:45;2.88;;;1.58;;
49310;SDS011;35177;45.900;5.946;2022-09-09T14:31:12;21.38;;;13.65;;
49310;SDS011;35177;45.900;5.946;2022-09-09T14:33:38;1.95;;;0.73;;
49310;SDS011;35177;45.900;5.946;2022-09-09T14:36:05;2.80;;;1.15;;
49310;SDS011;35177;45.900;5.946;2022-09-09T14:38:31;3.20;;;0.82;;
49310;SDS011;35177;45.900;5.946;2022-09-09T14:40:59;2.50;;;0.80;;
49310;SDS011;35177;45.900;5.946;2022-09-09T14:43:26;1.90;;;0.50;;
49310;SDS011;35177;45.900;5.946;2022-09-09T14:45:52;1.27;;;0.52;;
49310;SDS011;35177;45.900;5.946;2022-09-09T14:48:17;1.67;;;0.82;;
49310;SDS011;35177;45.900;5.946;2022-09-09T14:50:43;5.07;;;0.75;;
49310;SDS011;35177;45.900;5.946;2022-09-09T14:53:08;1.88;;;1.17;;
49310;SDS011;35177;45.900;5.946;2022-09-09T14:55:34;2.38;;;0.65;;
49310;SDS011;35177;45.900;5.946;2022-09-09T14:58:01;3.08;;;0.60;;
49310;SDS011;35177;45.900;5.946;2022-09-09T15:00:26;1.45;;;0.63;;
49310;SDS011;35177;45.900;5.946;2022-09-09T15:02:55;2.42;;;0.55;;
49310;SDS011;35177;45.900;5.946;2022-09-09T15:05:21;6.93;;;0.88;;
49310;SDS011;35177;45.900;5.946;2022-09-09T15:07:47;1.50;;;1.02;;
49310;SDS011;35177;45.900;5.946;2022-09-09T15:10:15;2.63;;;0.80;;
49310;SDS011;35177;45.900;5.946;2022-09-09T15:12:42;2.03;;;0.47;;
49310;SDS011;35177;45.900;5.946;2022-09-09T15:15:08;1.65;;;0.50;;
49310;SDS011;35177;45.900;5.946;2022-09-09T15:17:34;1.98;;;0.70;;
49310;SDS011;35177;45.900;5.946;2022-09-09T15:20:02;2.03;;;0.70;;
49310;SDS011;35177;45.900;5.946;2022-09-09T15:22:28;1.23;;;0.47;;
49310;SDS011;35177;45.900;5.946;2022-09-09T15:24:53;4.75;;;0.80;;
49310;SDS011;35177;45.900;5.946;2022-09-09T15:27:19;5.10;;;0.93;;
49310;SDS011;35177;45.900;5.946;2022-09-09T15:29:45;4.00;;;0.85;;
49310;SDS011;35177;45.900;5.946;2022-09-09T15:32:11;6.97;;;0.68;;
49310;SDS011;35177;45.900;5.946;2022-09-09T15:34:37;5.78;;;0.90;;
49310;SDS011;35177;45.900;5.946;2022-09-09T15:37:02;0.45;;;0.40;;
49310;SDS011;35177;45.900;5.946;2022-09-09T15:39:28;3.00;;;0.70;;
49310;SDS011;35177;45.900;5.946;2022-09-09T15:41:53;2.05;;;0.70;;
49310;SDS011;35177;45.900;5.946;2022-09-09T15:44:19;1.25;;;0.68;;
49310;SDS011;35177;45.900;5.946;2022-09-09T15:46:46;2.00;;;0.50;;
49310;SDS011;35177;45.900;5.946;2022-09-09T15:49:18;4.95;;;0.60;;
49310;SDS011;35177;45.900;5.946;2022-09-09T15:51:59;2.67;;;0.63;;
49310;SDS011;35177;45.900;5.946;2022-09-09T15:54:28;1.55;;;0.50;;
49310;SDS011;35177;45.900;5.946;2022-09-09T15:56:59;2.67;;;0.65;;
49310;SDS011;35177;45.900;5.946;2022-09-09T15:59:26;4.65;;;1.05;;
49310;SDS011;35177;45.900;5.946;2022-09-09T16:01:54;4.90;;;0.77;;
49310;SDS011;35177;45.900;5.946;2022-09-09T16:04:21;1.58;;;0.68;;
49310;SDS011;35177;45.900;5.946;2022-09-09T16:06:51;2.83;;;0.82;;
49310;SDS011;35177;45.900;5.946;2022-09-09T16:09:17;2.20;;;0.60;;
49310;SDS011;35177;45.900;5.946;2022-09-09T16:11:43;2.05;;;0.63;;
49310;SDS011;35177;45.900;5.946;2022-09-09T16:14:09;2.53;;;0.50;;
49310;SDS011;35177;45.900;5.946;2022-09-09T16:16:36;3.05;;;0.47;;
49310;SDS011;35177;45.900;5.946;2022-09-09T16:19:06;3.22;;;0.60;;
49310;SDS011;35177;45.900;5.946;2022-09-09T16:21:35;4.07;;;0.70;;
49310;SDS011;35177;45.900;5.946;2022-09-09T16:24:02;3.60;;;0.50;;
49310;SDS011;35177;45.900;5.946;2022-09-09T16:26:29;2.65;;;0.70;;
49310;SDS011;35177;45.900;5.946;2022-09-09T16:28:56;2.08;;;0.57;;
49310;SDS011;35177;45.900;5.946;2022-09-09T16:31:24;1.60;;;0.70;;
49310;SDS011;35177;45.900;5.946;2022-09-09T16:33:51;1.17;;;0.45;;
49310;SDS011;35177;45.900;5.946;2022-09-09T16:36:18;3.58;;;0.82;;
49310;SDS011;35177;45.900;5.946;2022-09-09T16:38:45;3.38;;;0.80;;
49310;SDS011;35177;45.900;5.946;2022-09-09T16:41:11;1.70;;;0.75;;
49310;SDS011;35177;45.900;5.946;2022-09-09T16:43:39;1.55;;;0.43;;
49310;SDS011;35177;45.900;5.946;2022-09-09T16:46:15;1.27;;;0.50;;
49310;SDS011;35177;45.900;5.946;2022-09-09T16:48:43;2.03;;;0.50;;
49310;SDS011;35177;45.900;5.946;2022-09-09T16:51:14;4.90;;;0.93;;
49310;SDS011;35177;45.900;5.946;2022-09-09T16:53:40;2.13;;;0.68;;
49310;SDS011;35177;45.900;5.946;2022-09-09T16:56:10;5.88;;;1.08;;
49310;SDS011;35177;45.900;5.946;2022-09-09T16:58:41;3.80;;;0.60;;
49310;SDS011;35177;45.900;5.946;2022-09-09T17:01:10;5.43;;;0.73;;
49310;SDS011;35177;45.900;5.946;2022-09-09T17:03:39;1.75;;;0.63;;
49310;SDS011;35177;45.900;5.946;2022-09-09T17:06:12;1.40;;;0.60;;
49310;SDS011;35177;45.900;5.946;2022-09-09T17:08:40;2.35;;;0.55;;
49310;SDS011;35177;45.900;5.946;2022-09-09T17:11:13;2.70;;;0.77;;